Time;durP1;ratioP1;P1;durP2;ratioP2;P2;SDS_P1;SDS_P2;PMS_P1;PMS_P2;Temp;Humidity;BMP_temperature;BMP_pressure;BME280_temperature;BME280_humidity;BME280_pressure;Samples;Min_cycle;Max_cycle;Signal;HPM_P1;HPM_P2
2022/07/09 00:00:20;;;;;;;;;;;;;;;;;;1038779;28;4035;-50
2022/07/09 00:01:07;;;;;;;;;;;;;;;;;;1042961;28;3975;-46
2022/07/09 00:01:37;;;;;;;;;;;;;;;;;;1045371;28;2210;-47
2022/07/09 00:02:07;;;;;;;;;;;;;;;;;;1042972;28;3912;-49
2022/07/09 00:02:38;;;;;;;;;;;;;;;;;;1039317;28;3911;-52
2022/07/09 00:03:08;;;;;;;;;;;;;;;;;;1039627;28;4044;-48
2022/07/09 00:03:39;;;;;;;;;;;;;;;;;;1039435;28;3635;-50
2022/07/09 00:04:09;;;;;;;;;;;;;;;;;;1039495;28;4031;-48
2022/07/09 00:04:39;;;;;;;;;;;;;;;;;;1045823;28;1356;-50
2022/07/09 00:05:12;;;;;;;;;;;;;;;;;;1045094;28;3884;-47
2022/07/09 00:05:42;;;;;;;;;;;;;;;;;;1045860;28;1758;-49
2022/07/09 00:06:12;;;;;;;;;;;;;;;;;;1045654;28;4076;-47
2022/07/09 00:06:42;;;;;;;;;;;;;;;;;;1045860;28;1911;-49
2022/07/09 00:07:13;;;;;;;;;;;;;;;;;;1045979;28;4091;-49
2022/07/09 00:07:43;;;;;;;;;;;;;;;;;;1045967;28;1840;-51
2022/07/09 00:08:13;;;;;;;;;;;;;;;;;;1043326;28;3800;-50
2022/07/09 00:08:44;;;;;;;;;;;;;;;;;;1045124;28;3889;-50
2022/07/09 00:09:14;;;;;;;;;;;;;;;;;;1044237;28;3794;-47
2022/07/09 00:09:44;;;;;;;;;;;;;;;;;;1040215;28;1626;-50
2022/07/09 00:10:14;;;;;;;;;;;;;;;;;;1039978;28;4022;-48
2022/07/09 00:10:45;;;;;;;;;;;;;;;;;;1040520;28;3931;-51
2022/07/09 00:11:15;;;;;;;;;;;;;;;;;;1040353;28;3798;-49
2022/07/09 00:11:46;;;;;;;;;;;;;;;;;;1045896;28;1769;-49
2022/07/09 00:12:16;;;;;;;;;;;;;;;;;;1043756;28;4054;-53
2022/07/09 00:12:46;;;;;;;;;;;;;;;;;;1046158;28;1668;-47
2022/07/09 00:13:17;;;;;;;;;;;;;;;;;;1037069;28;3992;-49
2022/07/09 00:13:47;;;;;;;;;;;;;;;;;;1038489;28;1295;-52
2022/07/09 00:14:18;;;;;;;;;;;;;;;;;;1037328;28;3883;-51
2022/07/09 00:14:48;;;;;;;;;;;;;;;;;;1036852;28;3980;-47
2022/07/09 00:15:19;;;;;;;;;;;;;;;;;;1043198;28;3860;-52
2022/07/09 00:15:50;;;;;;;;;;;;;;;;;;1045913;28;2972;-49
2022/07/09 00:16:20;;;;;;;;;;;;;;;;;;1045223;28;3862;-50
2022/07/09 00:16:50;;;;;;;;;;;;;;;;;;1041892;28;2355;-51
2022/07/09 00:17:21;;;;;;;;;;;;;;;;;;1041024;28;3906;-46
2022/07/09 00:17:51;;;;;;;;;;;;;;;;;;1042639;28;1780;-47
2022/07/09 00:18:21;;;;;;;;;;;;;;;;;;1041851;28;3819;-50
2022/07/09 00:18:52;;;;;;;;;;;;;;;;;;1043964;28;4192;-51
2022/07/09 00:19:22;;;;;;;;;;;;;;;;;;1044893;28;4185;-51
2022/07/09 00:19:52;;;;;;;;;;;;;;;;;;1043475;28;4061;-49
2022/07/09 00:20:22;;;;;;;;;;;;;;;;;;1045525;28;4336;-49
2022/07/09 00:20:54;;;;;;;;;;;;;;;;;;1044663;28;3799;-49
2022/07/09 00:21:24;;;;;;;;;;;;;;;;;;1045194;28;1950;-48
2022/07/09 00:21:54;;;;;;;;;;;;;;;;;;1044131;28;3995;-46
2022/07/09 00:22:24;;;;;;;;;;;;;;;;;;1041551;28;4136;-49
2022/07/09 00:22:55;;;;;;;;;;;;;;;;;;1042368;28;4225;-49
2022/07/09 00:23:25;;;;;;;;;;;;;;;;;;1041759;28;1682;-48
2022/07/09 00:23:56;;;;;;;;;;;;;;;;;;1042267;28;4094;-55
2022/07/09 00:24:26;;;;;;;;;;;;;;;;;;1042985;28;3866;-51
2022/07/09 00:25:02;;;;;;;;;;;;;;;;;;1045542;28;3807;-47
2022/07/09 00:25:33;;;;;;;;;;;;;;;;;;1044999;28;3118;-48
2022/07/09 00:26:03;;;;;;;;;;;;;;;;;;1045378;28;3872;-48
2022/07/09 00:26:33;;;;;;;;;;;;;;;;;;1045084;28;1671;-50
2022/07/09 00:27:04;;;;;;;;;;;;;;;;;;1045067;28;3885;-48
2022/07/09 00:27:34;;;;;;;;;;;;;;;;;;1044672;28;3682;-46
2022/07/09 00:28:04;;;;;;;;;;;;;;;;;;1045491;28;3971;-47
2022/07/09 00:28:35;;;;;;;;;;;;;;;;;;1042364;28;2229;-49
2022/07/09 00:29:05;;;;;;;;;;;;;;;;;;1041175;28;4144;-47
2022/07/09 00:29:35;;;;;;;;;;;;;;;;;;1040626;28;3794;-49
2022/07/09 00:30:06;;;;;;;;;;;;;;;;;;1041025;28;4354;-49
2022/07/09 00:30:36;;;;;;;;;;;;;;;;;;1045634;28;3237;-47
2022/07/09 00:31:07;;;;;;;;;;;;;;;;;;1045311;28;4066;-51
2022/07/09 00:31:37;;;;;;;;;;;;;;;;;;1045588;28;1846;-50
2022/07/09 00:32:07;;;;;;;;;;;;;;;;;;1044459;28;4400;-47
2022/07/09 00:32:39;;;;;;;;;;;;;;;;;;1044760;28;3720;-48
2022/07/09 00:33:09;;;;;;;;;;;;;;;;;;1040059;28;4080;-52
2022/07/09 00:33:39;;;;;;;;;;;;;;;;;;1039989;28;1703;-51
2022/07/09 00:34:10;;;;;;;;;;;;;;;;;;1039730;28;3963;-49
2022/07/09 00:34:40;;;;;;;;;;;;;;;;;;1040534;28;2808;-49
2022/07/09 00:35:10;;;;;;;;;;;;;;;;;;1045040;28;3858;-46
2022/07/09 00:35:40;;;;;;;;;;;;;;;;;;1045072;28;3463;-51
2022/07/09 00:36:11;;;;;;;;;;;;;;;;;;1045871;28;3815;-49
2022/07/09 00:36:41;;;;;;;;;;;;;;;;;;1045530;28;3399;-46
2022/07/09 00:37:11;;;;;;;;;;;;;;;;;;1045574;28;3977;-48
2022/07/09 00:37:42;;;;;;;;;;;;;;;;;;1045060;28;3070;-45
2022/07/09 00:38:12;;;;;;;;;;;;;;;;;;1044759;28;3841;-45
2022/07/09 00:38:42;;;;;;;;;;;;;;;;;;1045186;28;3696;-50
2022/07/09 00:39:13;;;;;;;;;;;;;;;;;;1045050;28;3996;-49
2022/07/09 00:39:43;;;;;;;;;;;;;;;;;;1045321;28;1622;-48
2022/07/09 00:40:13;;;;;;;;;;;;;;;;;;1039416;28;4366;-49
2022/07/09 00:40:43;;;;;;;;;;;;;;;;;;1038789;28;1389;-46
2022/07/09 00:41:14;;;;;;;;;;;;;;;;;;1036946;28;4104;-46
2022/07/09 00:41:44;;;;;;;;;;;;;;;;;;1039112;28;3415;-48
2022/07/09 00:42:14;;;;;;;;;;;;;;;;;;1040083;28;3799;-51
2022/07/09 00:42:45;;;;;;;;;;;;;;;;;;1045975;28;3496;-51
2022/07/09 00:43:16;;;;;;;;;;;;;;;;;;1042892;28;4636;-53
2022/07/09 00:43:48;;;;;;;;;;;;;;;;;;1045946;28;1381;-45
2022/07/09 00:44:18;;;;;;;;;;;;;;;;;;1043204;28;4938;-51
2022/07/09 00:44:48;;;;;;;;;;;;;;;;;;1045014;28;2173;-49
2022/07/09 00:45:19;;;;;;;;;;;;;;;;;;1043168;28;3912;-48
2022/07/09 00:45:49;;;;;;;;;;;;;;;;;;1045897;28;1743;-46
2022/07/09 00:46:19;;;;;;;;;;;;;;;;;;1038566;28;3851;-51
2022/07/09 00:46:50;;;;;;;;;;;;;;;;;;1041524;28;3359;-46
2022/07/09 00:47:20;;;;;;;;;;;;;;;;;;1040227;28;3954;-47
2022/07/09 00:48:04;;;;;;;;;;;;;;;;;;1040878;28;1686;-47
2022/07/09 00:48:41;;;;;;;;;;;;;;;;;;1039909;28;3885;-51
2022/07/09 00:49:11;;;;;;;;;;;;;;;;;;1041213;28;3956;-50
2022/07/09 00:49:42;;;;;;;;;;;;;;;;;;1041980;28;2240;-51
2022/07/09 00:50:13;;;;;;;;;;;;;;;;;;1036329;28;4388;-49
2022/07/09 00:50:43;;;;;;;;;;;;;;;;;;1035738;28;2603;-48
2022/07/09 00:51:14;;;;;;;;;;;;;;;;;;1036525;28;4424;-47
2022/07/09 00:51:44;;;;;;;;;;;;;;;;;;1040508;28;1659;-48
2022/07/09 00:52:17;;;;;;;;;;;;;;;;;;1040823;28;3892;-48
2022/07/09 00:52:47;;;;;;;;;;;;;;;;;;1040411;28;3129;-46
2022/07/09 00:53:20;;;;;;;;;;;;;;;;;;1041038;28;4274;-49
2022/07/09 00:53:50;;;;;;;;;;;;;;;;;;1040287;28;3954;-47
2022/07/09 00:54:21;;;;;;;;;;;;;;;;;;1040970;28;3874;-48
2022/07/09 00:54:52;;;;;;;;;;;;;;;;;;1041221;28;4043;-45
2022/07/09 00:55:22;;;;;;;;;;;;;;;;;;1039700;28;3453;-51
2022/07/09 00:55:53;;;;;;;;;;;;;;;;;;1041577;28;4104;-48
2022/07/09 00:56:23;;;;;;;;;;;;;;;;;;1041352;28;3765;-49
2022/07/09 00:56:54;;;;;;;;;;;;;;;;;;1040317;28;4499;-49
2022/07/09 00:57:24;;;;;;;;;;;;;;;;;;1042323;28;1773;-49
2022/07/09 00:57:54;;;;;;;;;;;;;;;;;;1041732;28;3936;-49
2022/07/09 00:58:24;;;;;;;;;;;;;;;;;;1042829;28;2402;-47
2022/07/09 00:58:55;;;;;;;;;;;;;;;;;;1040115;28;4497;-49
2022/07/09 00:59:25;;;;;;;;;;;;;;;;;;1042085;28;2413;-49
2022/07/09 00:59:57;;;;;;;;;;;;;;;;;;1041657;28;4131;-46
2022/07/09 01:00:27;;;;;;;;;;;;;;;;;;1040814;28;3294;-48
2022/07/09 01:00:58;;;;;;;;;;;;;;;;;;1040641;28;4291;-50
2022/07/09 01:01:28;;;;;;;;;;;;;;;;;;1041353;28;3883;-50
2022/07/09 01:01:59;;;;;;;;;;;;;;;;;;1037884;28;3827;-51
2022/07/09 01:02:30;;;;;;;;;;;;;;;;;;1037804;28;3014;-45
2022/07/09 01:03:00;;;;;;;;;;;;;;;;;;1036917;28;4240;-45
2022/07/09 01:03:30;;;;;;;;;;;;;;;;;;1042354;28;1750;-46
2022/07/09 01:04:01;;;;;;;;;;;;;;;;;;1040842;28;4142;-52
2022/07/09 01:04:31;;;;;;;;;;;;;;;;;;1041368;28;3544;-50
2022/07/09 01:05:01;;;;;;;;;;;;;;;;;;1040439;28;3817;-47
2022/07/09 01:05:35;;;;;;;;;;;;;;;;;;1041170;28;2746;-51
2022/07/09 01:06:06;;;;;;;;;;;;;;;;;;1041967;28;3917;-46
2022/07/09 01:06:36;;;;;;;;;;;;;;;;;;1040586;28;2558;-49
2022/07/09 01:07:06;;;;;;;;;;;;;;;;;;1039944;28;3794;-47
2022/07/09 01:07:37;;;;;;;;;;;;;;;;;;1040140;28;3456;-46
2022/07/09 01:08:07;;;;;;;;;;;;;;;;;;1039507;28;4060;-48
2022/07/09 01:08:38;;;;;;;;;;;;;;;;;;1040020;28;3852;-45
2022/07/09 01:09:08;;;;;;;;;;;;;;;;;;1039728;28;4145;-50
2022/07/09 01:09:39;;;;;;;;;;;;;;;;;;1037610;28;1754;-51
2022/07/09 01:10:10;;;;;;;;;;;;;;;;;;1038194;28;4043;-50
2022/07/09 01:10:40;;;;;;;;;;;;;;;;;;1036915;28;3047;-51
2022/07/09 01:11:10;;;;;;;;;;;;;;;;;;1040405;28;4104;-47
2022/07/09 01:11:41;;;;;;;;;;;;;;;;;;1040890;28;3982;-45
2022/07/09 01:12:11;;;;;;;;;;;;;;;;;;1042305;28;4102;-48
2022/07/09 01:12:42;;;;;;;;;;;;;;;;;;1041060;28;1763;-52
2022/07/09 01:13:12;;;;;;;;;;;;;;;;;;1041189;28;3791;-48
2022/07/09 01:13:42;;;;;;;;;;;;;;;;;;1041663;28;3918;-48
2022/07/09 01:14:13;;;;;;;;;;;;;;;;;;1040002;28;3802;-52
2022/07/09 01:14:43;;;;;;;;;;;;;;;;;;1041654;28;1864;-48
2022/07/09 01:15:13;;;;;;;;;;;;;;;;;;1040259;28;3932;-50
2022/07/09 01:15:43;;;;;;;;;;;;;;;;;;1040899;28;3772;-48
2022/07/09 01:16:15;;;;;;;;;;;;;;;;;;1042122;28;4359;-49
2022/07/09 01:16:45;;;;;;;;;;;;;;;;;;1040911;28;3350;-46
2022/07/09 01:17:16;;;;;;;;;;;;;;;;;;1041224;28;4027;-48
2022/07/09 01:17:46;;;;;;;;;;;;;;;;;;1041643;28;1975;-48
2022/07/09 01:18:18;;;;;;;;;;;;;;;;;;1045415;28;3939;-48
2022/07/09 01:18:48;;;;;;;;;;;;;;;;;;1044582;28;1557;-44
2022/07/09 01:19:18;;;;;;;;;;;;;;;;;;1040246;28;3770;-45
2022/07/09 01:19:48;;;;;;;;;;;;;;;;;;1040336;28;3835;-48
2022/07/09 01:20:23;;;;;;;;;;;;;;;;;;1041215;28;3875;-49
2022/07/09 01:20:53;;;;;;;;;;;;;;;;;;1039954;28;4072;-47
2022/07/09 01:21:23;;;;;;;;;;;;;;;;;;1041208;28;3975;-50
2022/07/09 01:21:54;;;;;;;;;;;;;;;;;;1040274;28;4179;-48
2022/07/09 01:22:24;;;;;;;;;;;;;;;;;;1042416;28;1564;-50
2022/07/09 01:23:01;;;;;;;;;;;;;;;;;;1040306;28;4451;-48
2022/07/09 01:23:32;;;;;;;;;;;;;;;;;;1041518;28;1564;-47
2022/07/09 01:24:02;;;;;;;;;;;;;;;;;;1039991;28;4059;-51
2022/07/09 01:24:33;;;;;;;;;;;;;;;;;;1040552;28;3293;-47
2022/07/09 01:25:09;;;;;;;;;;;;;;;;;;1039896;28;3904;-48
2022/07/09 01:25:43;;;;;;;;;;;;;;;;;;1041190;28;1580;-48
2022/07/09 01:26:13;;;;;;;;;;;;;;;;;;1037522;28;3808;-51
2022/07/09 01:26:44;;;;;;;;;;;;;;;;;;1038517;28;1614;-49
2022/07/09 01:27:14;;;;;;;;;;;;;;;;;;1035831;28;4057;-51
2022/07/09 01:27:45;;;;;;;;;;;;;;;;;;1037006;28;3425;-49
2022/07/09 01:28:15;;;;;;;;;;;;;;;;;;1034128;28;4393;-46
2022/07/09 01:28:46;;;;;;;;;;;;;;;;;;1041460;28;3920;-45
2022/07/09 01:29:17;;;;;;;;;;;;;;;;;;1037734;28;4109;-51
2022/07/09 01:29:49;;;;;;;;;;;;;;;;;;1032308;28;1584;-51
2022/07/09 01:30:23;;;;;;;;;;;;;;;;;;1035005;28;3918;-48
2022/07/09 01:30:53;;;;;;;;;;;;;;;;;;1037164;28;4084;-46
2022/07/09 01:31:24;;;;;;;;;;;;;;;;;;1038972;28;3971;-48
2022/07/09 01:31:54;;;;;;;;;;;;;;;;;;1041726;28;3990;-51
2022/07/09 01:32:24;;;;;;;;;;;;;;;;;;1040369;28;3828;-46
2022/07/09 01:32:55;;;;;;;;;;;;;;;;;;1041616;28;4142;-45
2022/07/09 01:33:26;;;;;;;;;;;;;;;;;;1039998;28;3484;-50
2022/07/09 01:33:56;;;;;;;;;;;;;;;;;;1041710;28;3851;-47
2022/07/09 01:34:27;;;;;;;;;;;;;;;;;;1042438;28;1673;-52
2022/07/09 01:34:57;;;;;;;;;;;;;;;;;;1039988;28;3874;-49
2022/07/09 01:35:27;;;;;;;;;;;;;;;;;;1042061;28;1427;-50
2022/07/09 01:35:58;;;;;;;;;;;;;;;;;;1041353;28;3837;-48
2022/07/09 01:36:28;;;;;;;;;;;;;;;;;;1041179;28;3328;-49
2022/07/09 01:36:58;;;;;;;;;;;;;;;;;;1039911;28;4063;-48
2022/07/09 01:37:28;;;;;;;;;;;;;;;;;;1040160;28;3743;-47
2022/07/09 01:37:59;;;;;;;;;;;;;;;;;;1038992;28;3901;-47
2022/07/09 01:38:29;;;;;;;;;;;;;;;;;;1041114;28;1613;-51
2022/07/09 01:38:59;;;;;;;;;;;;;;;;;;1044743;28;3896;-51
2022/07/09 01:39:30;;;;;;;;;;;;;;;;;;1045557;28;1849;-47
2022/07/09 01:40:00;;;;;;;;;;;;;;;;;;1044626;28;3893;-49
2022/07/09 01:40:30;;;;;;;;;;;;;;;;;;1039597;28;3727;-47
2022/07/09 01:41:01;;;;;;;;;;;;;;;;;;1040447;28;4391;-48
2022/07/09 01:41:32;;;;;;;;;;;;;;;;;;1041797;28;1670;-49
2022/07/09 01:42:02;;;;;;;;;;;;;;;;;;1040841;28;3828;-45
2022/07/09 01:42:32;;;;;;;;;;;;;;;;;;1040732;28;3059;-52
2022/07/09 01:43:02;;;;;;;;;;;;;;;;;;1041319;28;4088;-52
2022/07/09 01:43:33;;;;;;;;;;;;;;;;;;1040233;28;2823;-52
2022/07/09 01:44:04;;;;;;;;;;;;;;;;;;1041079;28;3919;-51
2022/07/09 01:44:34;;;;;;;;;;;;;;;;;;1040813;28;3736;-50
2022/07/09 01:45:04;;;;;;;;;;;;;;;;;;1040914;28;4102;-48
2022/07/09 01:45:35;;;;;;;;;;;;;;;;;;1041267;28;3413;-50
2022/07/09 01:46:05;;;;;;;;;;;;;;;;;;1039356;28;4040;-49
2022/07/09 01:46:35;;;;;;;;;;;;;;;;;;1038300;28;1609;-48
2022/07/09 01:47:06;;;;;;;;;;;;;;;;;;1037303;28;3866;-48
2022/07/09 01:47:50;;;;;;;;;;;;;;;;;;1033332;28;1691;-49
2022/07/09 01:48:28;;;;;;;;;;;;;;;;;;1039566;28;3995;-48
2022/07/09 01:48:59;;;;;;;;;;;;;;;;;;1035103;28;3894;-45
2022/07/09 01:49:29;;;;;;;;;;;;;;;;;;1040663;28;1435;-44
2022/07/09 01:49:59;;;;;;;;;;;;;;;;;;1039950;28;4072;-48
2022/07/09 01:50:30;;;;;;;;;;;;;;;;;;1039911;28;2434;-53
2022/07/09 01:51:00;;;;;;;;;;;;;;;;;;1044812;28;3944;-49
2022/07/09 01:51:32;;;;;;;;;;;;;;;;;;1046798;28;1754;-50
2022/07/09 01:52:03;;;;;;;;;;;;;;;;;;1039088;28;4254;-53
2022/07/09 01:52:34;;;;;;;;;;;;;;;;;;1040138;28;3536;-49
2022/07/09 01:53:04;;;;;;;;;;;;;;;;;;1040155;28;4207;-51
2022/07/09 01:53:35;;;;;;;;;;;;;;;;;;1042412;28;3999;-49
2022/07/09 01:54:05;;;;;;;;;;;;;;;;;;1040363;28;3805;-50
2022/07/09 01:54:35;;;;;;;;;;;;;;;;;;1042668;28;1759;-49
2022/07/09 01:55:06;;;;;;;;;;;;;;;;;;1039523;28;3882;-46
2022/07/09 01:55:36;;;;;;;;;;;;;;;;;;1041432;28;1656;-50
2022/07/09 01:56:07;;;;;;;;;;;;;;;;;;1038548;28;3901;-49
2022/07/09 01:56:37;;;;;;;;;;;;;;;;;;1041985;28;3691;-47
2022/07/09 01:57:07;;;;;;;;;;;;;;;;;;1040693;28;3813;-46
2022/07/09 01:57:38;;;;;;;;;;;;;;;;;;1042306;28;1713;-49
2022/07/09 01:58:08;;;;;;;;;;;;;;;;;;1040100;28;3882;-46
2022/07/09 01:58:38;;;;;;;;;;;;;;;;;;1040853;28;2653;-48
2022/07/09 01:59:09;;;;;;;;;;;;;;;;;;1039697;28;4475;-49
2022/07/09 01:59:39;;;;;;;;;;;;;;;;;;1040192;28;3585;-52
2022/07/09 02:00:10;;;;;;;;;;;;;;;;;;1039656;28;3804;-45
2022/07/09 02:00:40;;;;;;;;;;;;;;;;;;1041252;28;3753;-48
2022/07/09 02:01:10;;;;;;;;;;;;;;;;;;1040801;28;3872;-46
2022/07/09 02:01:41;;;;;;;;;;;;;;;;;;1040770;28;1717;-49
2022/07/09 02:02:11;;;;;;;;;;;;;;;;;;1040116;28;3801;-48
2022/07/09 02:02:41;;;;;;;;;;;;;;;;;;1038322;28;3993;-50
2022/07/09 02:03:12;;;;;;;;;;;;;;;;;;1041039;28;4165;-53
2022/07/09 02:03:42;;;;;;;;;;;;;;;;;;1041089;28;1696;-53
2022/07/09 02:04:12;;;;;;;;;;;;;;;;;;1040011;28;4041;-49
2022/07/09 02:04:43;;;;;;;;;;;;;;;;;;1039933;28;3876;-48
2022/07/09 02:05:13;;;;;;;;;;;;;;;;;;1039484;28;3778;-50
2022/07/09 02:05:43;;;;;;;;;;;;;;;;;;1040155;28;3283;-46
2022/07/09 02:06:14;;;;;;;;;;;;;;;;;;1038204;28;3812;-52
2022/07/09 02:06:44;;;;;;;;;;;;;;;;;;1039079;28;3433;-45
2022/07/09 02:07:14;;;;;;;;;;;;;;;;;;1039319;28;4191;-48
2022/07/09 02:07:45;;;;;;;;;;;;;;;;;;1040180;28;3969;-48
2022/07/09 02:08:15;;;;;;;;;;;;;;;;;;1036489;28;3954;-47
2022/07/09 02:08:45;;;;;;;;;;;;;;;;;;1036085;28;3821;-52
2022/07/09 02:09:16;;;;;;;;;;;;;;;;;;1035476;28;3860;-47
2022/07/09 02:09:48;;;;;;;;;;;;;;;;;;1036557;28;1711;-46
2022/07/09 02:10:19;;;;;;;;;;;;;;;;;;1040830;28;3741;-51
2022/07/09 02:10:49;;;;;;;;;;;;;;;;;;1042036;28;1738;-46
2022/07/09 02:11:20;;;;;;;;;;;;;;;;;;1041306;28;3963;-51
2022/07/09 02:11:50;;;;;;;;;;;;;;;;;;1042023;28;1364;-50
2022/07/09 02:12:20;;;;;;;;;;;;;;;;;;1041601;28;5159;-48
2022/07/09 02:12:50;;;;;;;;;;;;;;;;;;1042281;28;2082;-47
2022/07/09 02:13:21;;;;;;;;;;;;;;;;;;1039265;28;4332;-48
2022/07/09 02:13:51;;;;;;;;;;;;;;;;;;1041024;28;2610;-52
2022/07/09 02:14:21;;;;;;;;;;;;;;;;;;1041064;28;3879;-49
2022/07/09 02:14:52;;;;;;;;;;;;;;;;;;1039518;28;4186;-48
2022/07/09 02:15:28;;;;;;;;;;;;;;;;;;1040622;28;3530;-47
2022/07/09 02:16:00;;;;;;;;;;;;;;;;;;1039837;28;3912;-46
2022/07/09 02:16:30;;;;;;;;;;;;;;;;;;1040741;28;1663;-48
2022/07/09 02:17:01;;;;;;;;;;;;;;;;;;1040239;28;3877;-48
2022/07/09 02:17:31;;;;;;;;;;;;;;;;;;1042124;28;1801;-47
2022/07/09 02:18:02;;;;;;;;;;;;;;;;;;1039844;28;3818;-48
2022/07/09 02:18:32;;;;;;;;;;;;;;;;;;1042024;28;2182;-50
2022/07/09 02:19:03;;;;;;;;;;;;;;;;;;1041737;28;3977;-49
2022/07/09 02:19:33;;;;;;;;;;;;;;;;;;1041870;28;3560;-47
2022/07/09 02:20:03;;;;;;;;;;;;;;;;;;1040430;28;3894;-49
2022/07/09 02:20:34;;;;;;;;;;;;;;;;;;1042059;28;1697;-49
2022/07/09 02:21:05;;;;;;;;;;;;;;;;;;1039567;28;4196;-50
2022/07/09 02:21:35;;;;;;;;;;;;;;;;;;1039476;28;4061;-47
2022/07/09 02:22:06;;;;;;;;;;;;;;;;;;1031850;28;4362;-47
2022/07/09 02:22:36;;;;;;;;;;;;;;;;;;1038662;28;3727;-48
2022/07/09 02:23:07;;;;;;;;;;;;;;;;;;1034599;28;4089;-52
2022/07/09 02:23:38;;;;;;;;;;;;;;;;;;1033843;28;3813;-47
2022/07/09 02:24:08;;;;;;;;;;;;;;;;;;1038703;28;3814;-47
2022/07/09 02:24:38;;;;;;;;;;;;;;;;;;1040308;28;3237;-50
2022/07/09 02:25:08;;;;;;;;;;;;;;;;;;1040559;28;4073;-48
2022/07/09 02:25:39;;;;;;;;;;;;;;;;;;1041549;28;1824;-48
2022/07/09 02:26:09;;;;;;;;;;;;;;;;;;1040724;28;3929;-48
2022/07/09 02:26:39;;;;;;;;;;;;;;;;;;1039258;28;2628;-49
2022/07/09 02:27:09;;;;;;;;;;;;;;;;;;1039807;28;4415;-47
2022/07/09 02:27:40;;;;;;;;;;;;;;;;;;1038463;28;3470;-48
2022/07/09 02:28:10;;;;;;;;;;;;;;;;;;1037661;28;4030;-46
2022/07/09 02:28:41;;;;;;;;;;;;;;;;;;1039624;28;3331;-51
2022/07/09 02:29:11;;;;;;;;;;;;;;;;;;1038627;28;3887;-48
2022/07/09 02:29:41;;;;;;;;;;;;;;;;;;1039395;28;3196;-48
2022/07/09 02:30:12;;;;;;;;;;;;;;;;;;1037353;28;4238;-46
2022/07/09 02:30:42;;;;;;;;;;;;;;;;;;1041000;28;3286;-51
2022/07/09 02:31:13;;;;;;;;;;;;;;;;;;1039967;28;3980;-48
2022/07/09 02:31:43;;;;;;;;;;;;;;;;;;1041253;28;1706;-46
2022/07/09 02:32:13;;;;;;;;;;;;;;;;;;1040304;28;4437;-49
2022/07/09 02:32:44;;;;;;;;;;;;;;;;;;1040965;28;1379;-49
2022/07/09 02:33:14;;;;;;;;;;;;;;;;;;1039739;28;4265;-48
2022/07/09 02:33:44;;;;;;;;;;;;;;;;;;1042402;28;2068;-46
2022/07/09 02:34:14;;;;;;;;;;;;;;;;;;1041549;28;3982;-47
2022/07/09 02:34:45;;;;;;;;;;;;;;;;;;1037088;28;2038;-48
2022/07/09 02:35:15;;;;;;;;;;;;;;;;;;1037586;28;4338;-48
2022/07/09 02:35:45;;;;;;;;;;;;;;;;;;1037661;28;1609;-47
2022/07/09 02:36:15;;;;;;;;;;;;;;;;;;1037113;28;4019;-45
2022/07/09 02:36:46;;;;;;;;;;;;;;;;;;1039729;28;3776;-45
2022/07/09 02:37:16;;;;;;;;;;;;;;;;;;1045555;28;4972;-46
2022/07/09 02:37:46;;;;;;;;;;;;;;;;;;1037317;28;2817;-52
2022/07/09 02:38:16;;;;;;;;;;;;;;;;;;1032979;28;3769;-52
2022/07/09 02:38:47;;;;;;;;;;;;;;;;;;1028912;28;3784;-49
2022/07/09 02:39:17;;;;;;;;;;;;;;;;;;1030269;28;3870;-47
2022/07/09 02:39:48;;;;;;;;;;;;;;;;;;1037808;28;1444;-48
2022/07/09 02:40:18;;;;;;;;;;;;;;;;;;1039975;28;3763;-50
2022/07/09 02:40:48;;;;;;;;;;;;;;;;;;1040938;28;1354;-47
2022/07/09 02:41:18;;;;;;;;;;;;;;;;;;1039677;28;4211;-47
2022/07/09 02:41:49;;;;;;;;;;;;;;;;;;1040696;28;1673;-45
2022/07/09 02:42:20;;;;;;;;;;;;;;;;;;1038972;28;3963;-49
2022/07/09 02:42:50;;;;;;;;;;;;;;;;;;1044552;28;4151;-46
2022/07/09 02:43:20;;;;;;;;;;;;;;;;;;1043910;28;4118;-49
2022/07/09 02:43:50;;;;;;;;;;;;;;;;;;1041731;28;1773;-44
2022/07/09 02:44:21;;;;;;;;;;;;;;;;;;1041323;28;3904;-45
2022/07/09 02:44:51;;;;;;;;;;;;;;;;;;1041655;28;2060;-48
2022/07/09 02:45:21;;;;;;;;;;;;;;;;;;1039071;28;3850;-49
2022/07/09 02:45:55;;;;;;;;;;;;;;;;;;1041023;28;3979;-49
2022/07/09 02:46:25;;;;;;;;;;;;;;;;;;1040190;28;3508;-45
2022/07/09 02:46:55;;;;;;;;;;;;;;;;;;1040438;28;3780;-51
2022/07/09 02:47:25;;;;;;;;;;;;;;;;;;1040375;28;1566;-50
2022/07/09 02:48:09;;;;;;;;;;;;;;;;;;1039261;28;4448;-46
2022/07/09 02:48:46;;;;;;;;;;;;;;;;;;1040422;28;1583;-52
2022/07/09 02:49:17;;;;;;;;;;;;;;;;;;1039546;28;3800;-47
2022/07/09 02:49:47;;;;;;;;;;;;;;;;;;1039820;28;1629;-45
2022/07/09 02:50:17;;;;;;;;;;;;;;;;;;1039569;28;4007;-52
2022/07/09 02:50:49;;;;;;;;;;;;;;;;;;1038063;28;3580;-51
2022/07/09 02:51:19;;;;;;;;;;;;;;;;;;1040215;28;3778;-48
2022/07/09 02:51:49;;;;;;;;;;;;;;;;;;1040106;28;3072;-47
2022/07/09 02:52:20;;;;;;;;;;;;;;;;;;1040627;28;3960;-50
2022/07/09 02:52:50;;;;;;;;;;;;;;;;;;1041392;28;1706;-48
2022/07/09 02:53:20;;;;;;;;;;;;;;;;;;1041621;28;4350;-49
2022/07/09 02:53:50;;;;;;;;;;;;;;;;;;1041406;28;1921;-48
2022/07/09 02:54:21;;;;;;;;;;;;;;;;;;1044551;28;3861;-47
2022/07/09 02:54:51;;;;;;;;;;;;;;;;;;1045943;28;2216;-46
2022/07/09 02:55:21;;;;;;;;;;;;;;;;;;1045407;28;9931;-50
2022/07/09 02:55:52;;;;;;;;;;;;;;;;;;1044678;28;3971;-49
2022/07/09 02:56:22;;;;;;;;;;;;;;;;;;1045300;28;3602;-48
2022/07/09 02:56:52;;;;;;;;;;;;;;;;;;1039583;28;4480;-48
2022/07/09 02:57:22;;;;;;;;;;;;;;;;;;1040876;28;3742;-48
2022/07/09 02:57:53;;;;;;;;;;;;;;;;;;1040021;28;4267;-48
2022/07/09 02:58:23;;;;;;;;;;;;;;;;;;1039904;28;3729;-51
2022/07/09 02:58:54;;;;;;;;;;;;;;;;;;1040214;28;4091;-46
2022/07/09 02:59:24;;;;;;;;;;;;;;;;;;1039711;28;3756;-50
2022/07/09 02:59:54;;;;;;;;;;;;;;;;;;1041146;28;3808;-49
2022/07/09 03:00:25;;;;;;;;;;;;;;;;;;1040815;28;3328;-50
2022/07/09 03:01:05;;;;;;;;;;;;;;;;;;1041517;28;4052;-46
2022/07/09 03:01:35;;;;;;;;;;;;;;;;;;1042866;28;1861;-47
2022/07/09 03:02:05;;;;;;;;;;;;;;;;;;1040568;28;4020;-53
2022/07/09 03:02:35;;;;;;;;;;;;;;;;;;1040141;28;3783;-47
2022/07/09 03:03:06;;;;;;;;;;;;;;;;;;1039174;28;4081;-51
2022/07/09 03:03:36;;;;;;;;;;;;;;;;;;1040724;28;1603;-45
2022/07/09 03:04:07;;;;;;;;;;;;;;;;;;1040025;28;4066;-47
2022/07/09 03:04:37;;;;;;;;;;;;;;;;;;1040599;28;2056;-51
2022/07/09 03:05:07;;;;;;;;;;;;;;;;;;1040169;28;4116;-45
2022/07/09 03:05:38;;;;;;;;;;;;;;;;;;1041158;28;1958;-49
2022/07/09 03:06:08;;;;;;;;;;;;;;;;;;1039214;28;4263;-47
2022/07/09 03:06:38;;;;;;;;;;;;;;;;;;1039509;28;2872;-46
2022/07/09 03:07:09;;;;;;;;;;;;;;;;;;1039312;28;4211;-47
2022/07/09 03:07:39;;;;;;;;;;;;;;;;;;1041051;28;2763;-47
2022/07/09 03:08:10;;;;;;;;;;;;;;;;;;1040664;28;4513;-46
2022/07/09 03:08:40;;;;;;;;;;;;;;;;;;1041122;28;1835;-48
2022/07/09 03:09:10;;;;;;;;;;;;;;;;;;1040961;28;3814;-45
2022/07/09 03:09:41;;;;;;;;;;;;;;;;;;1039772;28;2458;-53
2022/07/09 03:10:12;;;;;;;;;;;;;;;;;;1040238;28;4290;-46
2022/07/09 03:10:42;;;;;;;;;;;;;;;;;;1040427;28;2981;-47
2022/07/09 03:11:12;;;;;;;;;;;;;;;;;;1041196;28;3779;-47
2022/07/09 03:11:42;;;;;;;;;;;;;;;;;;1040744;28;1960;-52
2022/07/09 03:12:13;;;;;;;;;;;;;;;;;;1044695;28;3778;-44
2022/07/09 03:12:43;;;;;;;;;;;;;;;;;;1044661;28;2829;-44
2022/07/09 03:13:13;;;;;;;;;;;;;;;;;;1039388;28;4562;-49
2022/07/09 03:13:43;;;;;;;;;;;;;;;;;;1038215;28;3790;-48
2022/07/09 03:14:14;;;;;;;;;;;;;;;;;;1032258;28;4006;-47
2022/07/09 03:14:44;;;;;;;;;;;;;;;;;;1032195;28;3788;-47
2022/07/09 03:15:16;;;;;;;;;;;;;;;;;;1036086;28;4404;-46
2022/07/09 03:15:47;;;;;;;;;;;;;;;;;;1038356;28;1807;-47
2022/07/09 03:16:17;;;;;;;;;;;;;;;;;;1044077;28;4042;-45
2022/07/09 03:16:47;;;;;;;;;;;;;;;;;;1044532;28;1806;-47
2022/07/09 03:17:18;;;;;;;;;;;;;;;;;;1042072;28;4060;-45
2022/07/09 03:17:48;;;;;;;;;;;;;;;;;;1040379;28;2322;-48
2022/07/09 03:18:18;;;;;;;;;;;;;;;;;;1040653;28;3874;-47
2022/07/09 03:18:49;;;;;;;;;;;;;;;;;;1041232;28;3708;-48
2022/07/09 03:19:19;;;;;;;;;;;;;;;;;;1039654;28;5170;-47
2022/07/09 03:19:49;;;;;;;;;;;;;;;;;;1039947;28;4057;-53
2022/07/09 03:20:19;;;;;;;;;;;;;;;;;;1039717;28;4823;-51
2022/07/09 03:20:50;;;;;;;;;;;;;;;;;;1040897;28;3992;-45
2022/07/09 03:21:21;;;;;;;;;;;;;;;;;;1039895;28;3926;-48
2022/07/09 03:21:51;;;;;;;;;;;;;;;;;;1040835;28;1985;-51
2022/07/09 03:22:21;;;;;;;;;;;;;;;;;;1039381;28;3645;-52
2022/07/09 03:22:51;;;;;;;;;;;;;;;;;;1041073;28;4242;-46
2022/07/09 03:23:22;;;;;;;;;;;;;;;;;;1040443;28;3730;-49
2022/07/09 03:23:53;;;;;;;;;;;;;;;;;;1039822;28;3961;-47
2022/07/09 03:24:23;;;;;;;;;;;;;;;;;;1036301;28;2013;-50
2022/07/09 03:24:53;;;;;;;;;;;;;;;;;;1035107;28;4134;-50
2022/07/09 03:25:24;;;;;;;;;;;;;;;;;;1034162;28;5567;-51
2022/07/09 03:25:54;;;;;;;;;;;;;;;;;;1039382;28;3987;-49
2022/07/09 03:26:24;;;;;;;;;;;;;;;;;;1041638;28;2575;-51
2022/07/09 03:26:54;;;;;;;;;;;;;;;;;;1039670;28;3906;-47
2022/07/09 03:27:25;;;;;;;;;;;;;;;;;;1040912;28;3517;-46
2022/07/09 03:27:55;;;;;;;;;;;;;;;;;;1038562;28;3985;-46
2022/07/09 03:28:25;;;;;;;;;;;;;;;;;;1039433;28;3666;-47
2022/07/09 03:28:56;;;;;;;;;;;;;;;;;;1034766;28;4094;-46
2022/07/09 03:29:26;;;;;;;;;;;;;;;;;;1041501;28;1718;-49
2022/07/09 03:29:56;;;;;;;;;;;;;;;;;;1039484;28;4124;-46
2022/07/09 03:30:27;;;;;;;;;;;;;;;;;;1040092;28;3816;-51
2022/07/09 03:30:57;;;;;;;;;;;;;;;;;;1039499;28;3938;-47
2022/07/09 03:31:27;;;;;;;;;;;;;;;;;;1041309;28;1366;-46
2022/07/09 03:31:57;;;;;;;;;;;;;;;;;;1039939;28;4099;-48
2022/07/09 03:32:28;;;;;;;;;;;;;;;;;;1040976;28;2193;-45
2022/07/09 03:32:58;;;;;;;;;;;;;;;;;;1039726;28;4010;-49
2022/07/09 03:33:28;;;;;;;;;;;;;;;;;;1041340;28;1753;-49